sensor_id;sensor_type;location;lat;lon;timestamp;temperature;humidity
35962;DHT22;22044;48.298;10.008;2022-08-19T00:01:29;18.70;99.90
35962;DHT22;22044;48.298;10.008;2022-08-19T00:03:58;18.80;99.90
35962;DHT22;22044;48.298;10.008;2022-08-19T00:06:26;18.80;99.90
35962;DHT22;22044;48.298;10.008;2022-08-19T00:08:54;18.80;99.90
35962;DHT22;22044;48.298;10.008;2022-08-19T00:11:21;18.80;99.90
35962;DHT22;22044;48.298;10.008;2022-08-19T00:13:48;18.90;99.90
35962;DHT22;22044;48.298;10.008;2022-08-19T00:16:15;18.90;99.90
35962;DHT22;22044;48.298;10.008;2022-08-19T00:18:47;19.00;99.90
35962;DHT22;22044;48.298;10.008;2022-08-19T00:21:15;18.90;99.90
35962;DHT22;22044;48.298;10.008;2022-08-19T00:23:43;18.90;99.90
35962;DHT22;22044;48.298;10.008;2022-08-19T00:26:11;18.90;99.90
35962;DHT22;22044;48.298;10.008;2022-08-19T00:28:38;18.80;99.90
35962;DHT22;22044;48.298;10.008;2022-08-19T00:31:07;18.80;99.90
35962;DHT22;22044;48.298;10.008;2022-08-19T00:33:34;18.80;99.90
35962;DHT22;22044;48.298;10.008;2022-08-19T00:36:02;18.70;99.90
35962;DHT22;22044;48.298;10.008;2022-08-19T00:38:31;18.60;99.90
35962;DHT22;22044;48.298;10.008;2022-08-19T00:40:58;18.60;99.90
35962;DHT22;22044;48.298;10.008;2022-08-19T00:43:27;18.50;99.90
35962;DHT22;22044;48.298;10.008;2022-08-19T00:45:54;18.30;99.90
35962;DHT22;22044;48.298;10.008;2022-08-19T00:48:21;18.40;99.90
35962;DHT22;22044;48.298;10.008;2022-08-19T00:50:50;18.50;99.90
35962;DHT22;22044;48.298;10.008;2022-08-19T00:53:23;18.50;99.90
35962;DHT22;22044;48.298;10.008;2022-08-19T00:55:55;18.60;99.90
35962;DHT22;22044;48.298;10.008;2022-08-19T00:58:26;18.60;99.90
35962;DHT22;22044;48.298;10.008;2022-08-19T01:00:54;18.70;99.90
35962;DHT22;22044;48.298;10.008;2022-08-19T01:03:22;18.70;99.90
35962;DHT22;22044;48.298;10.008;2022-08-19T01:05:50;18.80;99.90
35962;DHT22;22044;48.298;10.008;2022-08-19T01:08:19;18.70;99.90
35962;DHT22;22044;48.298;10.008;2022-08-19T01:10:48;18.70;99.90
35962;DHT22;22044;48.298;10.008;2022-08-19T01:13:21;18.80;99.90
35962;DHT22;22044;48.298;10.008;2022-08-19T01:15:53;18.80;99.90
35962;DHT22;22044;48.298;10.008;2022-08-19T01:18:22;18.90;99.90
35962;DHT22;22044;48.298;10.008;2022-08-19T01:20:51;18.80;99.90
35962;DHT22;22044;48.298;10.008;2022-08-19T01:23:20;18.80;99.90
35962;DHT22;22044;48.298;10.008;2022-08-19T01:25:49;18.80;99.90
35962;DHT22;22044;48.298;10.008;2022-08-19T01:28:19;18.70;99.90
35962;DHT22;22044;48.298;10.008;2022-08-19T01:30:46;18.70;99.90
35962;DHT22;22044;48.298;10.008;2022-08-19T01:33:14;18.80;99.90
35962;DHT22;22044;48.298;10.008;2022-08-19T01:35:42;18.80;99.90
35962;DHT22;22044;48.298;10.008;2022-08-19T01:38:10;18.80;99.90
35962;DHT22;22044;48.298;10.008;2022-08-19T01:40:47;18.80;99.90
35962;DHT22;22044;48.298;10.008;2022-08-19T01:43:14;18.80;99.90
35962;DHT22;22044;48.298;10.008;2022-08-19T01:45:42;18.80;99.90
35962;DHT22;22044;48.298;10.008;2022-08-19T01:48:09;18.70;99.90
35962;DHT22;22044;48.298;10.008;2022-08-19T01:50:36;18.80;99.90
35962;DHT22;22044;48.298;10.008;2022-08-19T01:53:06;18.80;99.90
35962;DHT22;22044;48.298;10.008;2022-08-19T01:55:37;18.80;99.90
35962;DHT22;22044;48.298;10.008;2022-08-19T01:58:08;18.80;99.90
35962;DHT22;22044;48.298;10.008;2022-08-19T02:00:37;18.70;99.90
35962;DHT22;22044;48.298;10.008;2022-08-19T02:03:04;18.70;99.90
35962;DHT22;22044;48.298;10.008;2022-08-19T02:05:33;18.80;99.90
35962;DHT22;22044;48.298;10.008;2022-08-19T02:08:00;18.90;99.90
35962;DHT22;22044;48.298;10.008;2022-08-19T02:10:27;18.90;99.90
35962;DHT22;22044;48.298;10.008;2022-08-19T02:12:54;18.90;99.90
35962;DHT22;22044;48.298;10.008;2022-08-19T02:15:23;18.90;99.90
35962;DHT22;22044;48.298;10.008;2022-08-19T02:17:51;18.80;99.90
35962;DHT22;22044;48.298;10.008;2022-08-19T02:20:18;18.80;99.90
35962;DHT22;22044;48.298;10.008;2022-08-19T02:22:46;18.80;99.90
35962;DHT22;22044;48.298;10.008;2022-08-19T02:25:13;18.80;99.90
35962;DHT22;22044;48.298;10.008;2022-08-19T02:27:42;18.80;99.90
35962;DHT22;22044;48.298;10.008;2022-08-19T02:30:13;18.70;99.90
35962;DHT22;22044;48.298;10.008;2022-08-19T02:32:43;18.70;99.90
35962;DHT22;22044;48.298;10.008;2022-08-19T02:35:10;18.70;99.90
35962;DHT22;22044;48.298;10.008;2022-08-19T02:37:37;18.80;99.90
35962;DHT22;22044;48.298;10.008;2022-08-19T02:40:22;18.80;99.90
35962;DHT22;22044;48.298;10.008;2022-08-19T02:42:49;18.80;99.90
35962;DHT22;22044;48.298;10.008;2022-08-19T02:45:16;18.80;99.90
35962;DHT22;22044;48.298;10.008;2022-08-19T02:47:45;18.80;99.90
35962;DHT22;22044;48.298;10.008;2022-08-19T02:50:13;18.70;99.90
35962;DHT22;22044;48.298;10.008;2022-08-19T02:52:40;18.80;99.90
35962;DHT22;22044;48.298;10.008;2022-08-19T02:55:08;18.60;99.90
35962;DHT22;22044;48.298;10.008;2022-08-19T02:57:35;18.60;99.90
35962;DHT22;22044;48.298;10.008;2022-08-19T03:00:05;18.60;99.90
35962;DHT22;22044;48.298;10.008;2022-08-19T03:02:33;18.60;99.90
35962;DHT22;22044;48.298;10.008;2022-08-19T03:05:07;18.50;99.90
35962;DHT22;22044;48.298;10.008;2022-08-19T03:07:35;18.50;99.90
35962;DHT22;22044;48.298;10.008;2022-08-19T03:10:03;18.40;99.90
35962;DHT22;22044;48.298;10.008;2022-08-19T03:12:30;18.30;99.90
35962;DHT22;22044;48.298;10.008;2022-08-19T03:14:57;18.20;99.90
35962;DHT22;22044;48.298;10.008;2022-08-19T03:17:24;18.10;99.90
35962;DHT22;22044;48.298;10.008;2022-08-19T03:19:51;18.10;99.90
35962;DHT22;22044;48.298;10.008;2022-08-19T03:22:20;18.10;99.90
35962;DHT22;22044;48.298;10.008;2022-08-19T03:24:47;18.00;99.90
35962;DHT22;22044;48.298;10.008;2022-08-19T03:27:14;18.00;99.90
35962;DHT22;22044;48.298;10.008;2022-08-19T03:29:43;18.10;99.90
35962;DHT22;22044;48.298;10.008;2022-08-19T03:32:11;18.10;99.90
35962;DHT22;22044;48.298;10.008;2022-08-19T03:34:39;18.10;99.90
35962;DHT22;22044;48.298;10.008;2022-08-19T03:37:08;18.20;99.90
35962;DHT22;22044;48.298;10.008;2022-08-19T03:39:38;18.30;99.90
35962;DHT22;22044;48.298;10.008;2022-08-19T03:42:06;18.30;99.90
35962;DHT22;22044;48.298;10.008;2022-08-19T03:44:33;18.20;99.90
35962;DHT22;22044;48.298;10.008;2022-08-19T03:47:02;18.20;99.90
35962;DHT22;22044;48.298;10.008;2022-08-19T03:49:31;18.10;99.90
35962;DHT22;22044;48.298;10.008;2022-08-19T03:51:59;17.80;99.90
35962;DHT22;22044;48.298;10.008;2022-08-19T03:54:27;17.60;99.90
35962;DHT22;22044;48.298;10.008;2022-08-19T03:56:56;17.50;99.90
35962;DHT22;22044;48.298;10.008;2022-08-19T03:59:27;17.60;99.90
35962;DHT22;22044;48.298;10.008;2022-08-19T04:01:55;17.70;99.90
35962;DHT22;22044;48.298;10.008;2022-08-19T04:04:22;17.80;99.90
35962;DHT22;22044;48.298;10.008;2022-08-19T04:06:50;17.90;99.90
35962;DHT22;22044;48.298;10.008;2022-08-19T04:09:19;17.90;99.90
35962;DHT22;22044;48.298;10.008;2022-08-19T04:11:47;17.90;99.90
35962;DHT22;22044;48.298;10.008;2022-08-19T04:14:19;17.90;99.90
35962;DHT22;22044;48.298;10.008;2022-08-19T04:16:48;18.00;99.90
35962;DHT22;22044;48.298;10.008;2022-08-19T04:19:17;18.00;99.90
35962;DHT22;22044;48.298;10.008;2022-08-19T04:21:45;18.00;99.90
35962;DHT22;22044;48.298;10.008;2022-08-19T04:24:13;18.00;99.90
35962;DHT22;22044;48.298;10.008;2022-08-19T04:26:41;18.00;99.90
35962;DHT22;22044;48.298;10.008;2022-08-19T04:29:13;18.10;99.90
35962;DHT22;22044;48.298;10.008;2022-08-19T04:31:44;18.10;99.90
35962;DHT22;22044;48.298;10.008;2022-08-19T04:34:14;18.20;99.90
35962;DHT22;22044;48.298;10.008;2022-08-19T04:36:43;18.20;99.90
35962;DHT22;22044;48.298;10.008;2022-08-19T04:39:14;18.20;99.90
35962;DHT22;22044;48.298;10.008;2022-08-19T04:41:43;18.20;99.90
35962;DHT22;22044;48.298;10.008;2022-08-19T04:44:27;18.20;99.90
35962;DHT22;22044;48.298;10.008;2022-08-19T04:46:57;18.20;99.90
35962;DHT22;22044;48.298;10.008;2022-08-19T04:49:25;18.20;99.90
35962;DHT22;22044;48.298;10.008;2022-08-19T04:51:53;18.20;99.90
35962;DHT22;22044;48.298;10.008;2022-08-19T04:54:22;18.30;99.90
35962;DHT22;22044;48.298;10.008;2022-08-19T04:56:50;18.30;99.90
35962;DHT22;22044;48.298;10.008;2022-08-19T04:59:18;18.30;99.90
35962;DHT22;22044;48.298;10.008;2022-08-19T05:01:46;18.20;99.90
35962;DHT22;22044;48.298;10.008;2022-08-19T05:04:19;18.20;99.90
35962;DHT22;22044;48.298;10.008;2022-08-19T05:06:47;18.20;99.90
35962;DHT22;22044;48.298;10.008;2022-08-19T05:09:15;18.30;99.90
35962;DHT22;22044;48.298;10.008;2022-08-19T05:11:43;18.30;99.90
35962;DHT22;22044;48.298;10.008;2022-08-19T05:14:11;18.20;99.90
35962;DHT22;22044;48.298;10.008;2022-08-19T05:16:40;18.30;99.90
35962;DHT22;22044;48.298;10.008;2022-08-19T05:19:07;18.30;99.90
35962;DHT22;22044;48.298;10.008;2022-08-19T05:21:53;18.30;99.90
35962;DHT22;22044;48.298;10.008;2022-08-19T05:24:38;18.30;99.90
35962;DHT22;22044;48.298;10.008;2022-08-19T05:27:05;18.20;99.90
35962;DHT22;22044;48.298;10.008;2022-08-19T05:29:33;18.20;99.90
35962;DHT22;22044;48.298;10.008;2022-08-19T05:32:01;18.20;99.90
35962;DHT22;22044;48.298;10.008;2022-08-19T05:34:31;18.20;99.90
35962;DHT22;22044;48.298;10.008;2022-08-19T05:37:02;18.20;99.90
35962;DHT22;22044;48.298;10.008;2022-08-19T05:39:32;18.20;99.90
35962;DHT22;22044;48.298;10.008;2022-08-19T05:42:00;18.20;99.90
35962;DHT22;22044;48.298;10.008;2022-08-19T05:44:30;18.10;99.90
35962;DHT22;22044;48.298;10.008;2022-08-19T05:46:58;18.00;99.90
35962;DHT22;22044;48.298;10.008;2022-08-19T05:49:26;17.90;99.90
35962;DHT22;22044;48.298;10.008;2022-08-19T05:51:54;17.90;99.90
35962;DHT22;22044;48.298;10.008;2022-08-19T05:54:23;17.90;99.90
35962;DHT22;22044;48.298;10.008;2022-08-19T05:56:52;18.00;99.90
35962;DHT22;22044;48.298;10.008;2022-08-19T05:59:20;18.10;99.90
35962;DHT22;22044;48.298;10.008;2022-08-19T06:01:49;18.10;99.90
35962;DHT22;22044;48.298;10.008;2022-08-19T06:04:17;18.10;99.90
35962;DHT22;22044;48.298;10.008;2022-08-19T06:06:45;18.10;99.90
35962;DHT22;22044;48.298;10.008;2022-08-19T06:09:13;18.10;99.90
35962;DHT22;22044;48.298;10.008;2022-08-19T06:11:43;18.10;99.90
35962;DHT22;22044;48.298;10.008;2022-08-19T06:14:14;18.20;99.90
35962;DHT22;22044;48.298;10.008;2022-08-19T06:16:43;18.10;99.90
35962;DHT22;22044;48.298;10.008;2022-08-19T06:19:13;18.10;99.90
35962;DHT22;22044;48.298;10.008;2022-08-19T06:21:43;18.10;99.90
35962;DHT22;22044;48.298;10.008;2022-08-19T06:24:13;18.10;99.90
35962;DHT22;22044;48.298;10.008;2022-08-19T06:26:45;18.10;99.90
35962;DHT22;22044;48.298;10.008;2022-08-19T06:29:14;18.10;99.90
35962;DHT22;22044;48.298;10.008;2022-08-19T06:31:43;18.00;99.90
35962;DHT22;22044;48.298;10.008;2022-08-19T06:34:11;18.00;99.90
35962;DHT22;22044;48.298;10.008;2022-08-19T06:36:41;18.00;99.90
35962;DHT22;22044;48.298;10.008;2022-08-19T06:39:11;17.90;99.90
35962;DHT22;22044;48.298;10.008;2022-08-19T06:41:40;18.00;99.90
35962;DHT22;22044;48.298;10.008;2022-08-19T06:44:18;18.00;99.90
35962;DHT22;22044;48.298;10.008;2022-08-19T06:46:46;18.10;99.90
35962;DHT22;22044;48.298;10.008;2022-08-19T06:49:14;18.00;99.90
35962;DHT22;22044;48.298;10.008;2022-08-19T06:51:42;18.00;99.90
35962;DHT22;22044;48.298;10.008;2022-08-19T06:54:10;18.00;99.90
35962;DHT22;22044;48.298;10.008;2022-08-19T06:56:38;18.10;99.90
35962;DHT22;22044;48.298;10.008;2022-08-19T06:59:08;18.10;99.90
35962;DHT22;22044;48.298;10.008;2022-08-19T07:01:39;18.10;99.90
35962;DHT22;22044;48.298;10.008;2022-08-19T07:04:07;18.20;99.90
35962;DHT22;22044;48.298;10.008;2022-08-19T07:06:36;18.10;99.90
35962;DHT22;22044;48.298;10.008;2022-08-19T07:09:07;18.10;99.90
35962;DHT22;22044;48.298;10.008;2022-08-19T07:11:34;18.10;99.90
35962;DHT22;22044;48.298;10.008;2022-08-19T07:14:02;18.10;99.90
35962;DHT22;22044;48.298;10.008;2022-08-19T07:16:30;18.00;99.90
35962;DHT22;22044;48.298;10.008;2022-08-19T07:18:58;18.00;99.90
35962;DHT22;22044;48.298;10.008;2022-08-19T07:21:27;17.90;99.90
35962;DHT22;22044;48.298;10.008;2022-08-19T07:23:55;17.90;99.90
35962;DHT22;22044;48.298;10.008;2022-08-19T07:26:25;17.80;99.90
35962;DHT22;22044;48.298;10.008;2022-08-19T07:28:54;17.90;99.90
35962;DHT22;22044;48.298;10.008;2022-08-19T07:31:24;17.90;99.90
35962;DHT22;22044;48.298;10.008;2022-08-19T07:33:53;18.00;99.90
35962;DHT22;22044;48.298;10.008;2022-08-19T07:36:25;18.00;99.90
35962;DHT22;22044;48.298;10.008;2022-08-19T07:38:54;18.00;99.90
35962;DHT22;22044;48.298;10.008;2022-08-19T07:41:23;18.00;99.90
35962;DHT22;22044;48.298;10.008;2022-08-19T07:43:51;18.10;99.90
35962;DHT22;22044;48.298;10.008;2022-08-19T07:46:19;18.10;99.90
35962;DHT22;22044;48.298;10.008;2022-08-19T07:48:48;18.20;99.90
35962;DHT22;22044;48.298;10.008;2022-08-19T07:51:20;18.30;99.90
35962;DHT22;22044;48.298;10.008;2022-08-19T07:53:49;18.40;99.90
35962;DHT22;22044;48.298;10.008;2022-08-19T07:56:18;18.50;99.90
35962;DHT22;22044;48.298;10.008;2022-08-19T07:58:48;18.50;99.90
35962;DHT22;22044;48.298;10.008;2022-08-19T08:01:18;18.50;99.90
35962;DHT22;22044;48.298;10.008;2022-08-19T08:03:47;18.50;99.90
35962;DHT22;22044;48.298;10.008;2022-08-19T08:06:32;18.50;99.90
35962;DHT22;22044;48.298;10.008;2022-08-19T08:09:21;18.50;99.90
35962;DHT22;22044;48.298;10.008;2022-08-19T08:11:52;18.40;99.90
35962;DHT22;22044;48.298;10.008;2022-08-19T08:14:23;18.50;99.90
35962;DHT22;22044;48.298;10.008;2022-08-19T08:16:51;18.60;99.90
35962;DHT22;22044;48.298;10.008;2022-08-19T08:19:19;18.60;99.90
35962;DHT22;22044;48.298;10.008;2022-08-19T08:21:47;18.50;99.90
35962;DHT22;22044;48.298;10.008;2022-08-19T08:24:14;18.40;99.90
35962;DHT22;22044;48.298;10.008;2022-08-19T08:26:43;18.40;99.90
35962;DHT22;22044;48.298;10.008;2022-08-19T08:29:12;18.50;99.90
35962;DHT22;22044;48.298;10.008;2022-08-19T08:31:40;18.50;99.90
35962;DHT22;22044;48.298;10.008;2022-08-19T08:34:09;18.60;99.90
35962;DHT22;22044;48.298;10.008;2022-08-19T08:36:37;18.70;99.90
35962;DHT22;22044;48.298;10.008;2022-08-19T08:39:08;18.70;99.90
35962;DHT22;22044;48.298;10.008;2022-08-19T08:41:39;18.60;99.90
35962;DHT22;22044;48.298;10.008;2022-08-19T08:44:14;18.60;99.90
35962;DHT22;22044;48.298;10.008;2022-08-19T08:46:47;18.60;99.90
35962;DHT22;22044;48.298;10.008;2022-08-19T08:49:26;18.50;99.90
35962;DHT22;22044;48.298;10.008;2022-08-19T08:52:00;18.60;99.90
35962;DHT22;22044;48.298;10.008;2022-08-19T08:54:33;18.50;99.90
35962;DHT22;22044;48.298;10.008;2022-08-19T08:57:04;18.50;99.90
35962;DHT22;22044;48.298;10.008;2022-08-19T08:59:36;18.40;99.90
35962;DHT22;22044;48.298;10.008;2022-08-19T09:02:05;18.40;99.90
35962;DHT22;22044;48.298;10.008;2022-08-19T09:04:33;18.30;99.90
35962;DHT22;22044;48.298;10.008;2022-08-19T09:07:24;18.20;99.90
35962;DHT22;22044;48.298;10.008;2022-08-19T09:10:02;18.10;99.90
35962;DHT22;22044;48.298;10.008;2022-08-19T09:12:35;18.10;99.90
35962;DHT22;22044;48.298;10.008;2022-08-19T09:15:09;18.00;99.90
35962;DHT22;22044;48.298;10.008;2022-08-19T09:17:37;18.00;99.90
35962;DHT22;22044;48.298;10.008;2022-08-19T09:20:14;18.00;99.90
35962;DHT22;22044;48.298;10.008;2022-08-19T09:22:43;17.90;99.90
35962;DHT22;22044;48.298;10.008;2022-08-19T09:25:12;17.90;99.90
35962;DHT22;22044;48.298;10.008;2022-08-19T09:27:43;17.90;99.90
35962;DHT22;22044;48.298;10.008;2022-08-19T09:30:23;17.90;99.90
35962;DHT22;22044;48.298;10.008;2022-08-19T09:32:52;17.90;99.90
35962;DHT22;22044;48.298;10.008;2022-08-19T09:35:20;17.90;99.90
35962;DHT22;22044;48.298;10.008;2022-08-19T09:37:50;17.80;99.90
35962;DHT22;22044;48.298;10.008;2022-08-19T09:40:18;17.80;99.90
35962;DHT22;22044;48.298;10.008;2022-08-19T09:42:46;17.80;99.90
35962;DHT22;22044;48.298;10.008;2022-08-19T09:45:16;17.90;99.90
35962;DHT22;22044;48.298;10.008;2022-08-19T09:47:44;17.80;99.90
35962;DHT22;22044;48.298;10.008;2022-08-19T09:50:12;17.80;99.90
35962;DHT22;22044;48.298;10.008;2022-08-19T09:52:40;17.80;99.90
35962;DHT22;22044;48.298;10.008;2022-08-19T09:55:09;17.70;99.90
35962;DHT22;22044;48.298;10.008;2022-08-19T09:57:37;17.80;99.90
35962;DHT22;22044;48.298;10.008;2022-08-19T10:00:07;17.80;99.90
35962;DHT22;22044;48.298;10.008;2022-08-19T10:02:36;17.90;99.90
35962;DHT22;22044;48.298;10.008;2022-08-19T10:05:04;18.00;99.90
35962;DHT22;22044;48.298;10.008;2022-08-19T10:07:49;18.00;99.90
35962;DHT22;22044;48.298;10.008;2022-08-19T10:10:17;18.10;99.90
35962;DHT22;22044;48.298;10.008;2022-08-19T10:12:44;18.10;99.90
35962;DHT22;22044;48.298;10.008;2022-08-19T10:15:13;18.00;99.90
35962;DHT22;22044;48.298;10.008;2022-08-19T10:17:42;18.00;99.90
35962;DHT22;22044;48.298;10.008;2022-08-19T10:20:10;17.90;99.90
35962;DHT22;22044;48.298;10.008;2022-08-19T10:22:37;17.80;99.90
35962;DHT22;22044;48.298;10.008;2022-08-19T10:25:06;17.90;99.90
35962;DHT22;22044;48.298;10.008;2022-08-19T10:27:33;17.90;99.90
35962;DHT22;22044;48.298;10.008;2022-08-19T10:30:01;17.60;99.90
35962;DHT22;22044;48.298;10.008;2022-08-19T10:32:28;17.60;99.90
35962;DHT22;22044;48.298;10.008;2022-08-19T10:34:57;17.80;99.90
35962;DHT22;22044;48.298;10.008;2022-08-19T10:37:24;17.70;99.90
35962;DHT22;22044;48.298;10.008;2022-08-19T10:39:51;17.70;99.90
35962;DHT22;22044;48.298;10.008;2022-08-19T10:42:19;17.80;99.90
35962;DHT22;22044;48.298;10.008;2022-08-19T10:44:46;17.90;99.90
35962;DHT22;22044;48.298;10.008;2022-08-19T10:47:14;17.90;99.90
35962;DHT22;22044;48.298;10.008;2022-08-19T10:49:41;17.80;99.90
35962;DHT22;22044;48.298;10.008;2022-08-19T10:52:27;17.90;99.90
35962;DHT22;22044;48.298;10.008;2022-08-19T10:55:01;18.00;99.90
35962;DHT22;22044;48.298;10.008;2022-08-19T10:57:45;18.10;99.90
35962;DHT22;22044;48.298;10.008;2022-08-19T11:00:13;17.90;99.90
35962;DHT22;22044;48.298;10.008;2022-08-19T11:02:40;17.80;99.90
35962;DHT22;22044;48.298;10.008;2022-08-19T11:05:08;17.70;99.90
35962;DHT22;22044;48.298;10.008;2022-08-19T11:07:38;17.70;99.90
35962;DHT22;22044;48.298;10.008;2022-08-19T11:10:06;17.70;99.90
35962;DHT22;22044;48.298;10.008;2022-08-19T11:12:35;17.80;99.90
35962;DHT22;22044;48.298;10.008;2022-08-19T11:15:05;17.80;99.90
35962;DHT22;22044;48.298;10.008;2022-08-19T11:17:33;17.90;99.90
35962;DHT22;22044;48.298;10.008;2022-08-19T11:20:01;17.90;99.90
35962;DHT22;22044;48.298;10.008;2022-08-19T11:22:31;17.90;99.90
35962;DHT22;22044;48.298;10.008;2022-08-19T11:24:59;18.00;99.90
35962;DHT22;22044;48.298;10.008;2022-08-19T11:27:26;18.00;99.90
35962;DHT22;22044;48.298;10.008;2022-08-19T11:29:54;18.00;99.90
35962;DHT22;22044;48.298;10.008;2022-08-19T11:32:21;17.90;99.90
35962;DHT22;22044;48.298;10.008;2022-08-19T11:34:48;17.90;99.90
35962;DHT22;22044;48.298;10.008;2022-08-19T11:37:15;17.90;99.90
35962;DHT22;22044;48.298;10.008;2022-08-19T11:39:43;17.80;99.90
35962;DHT22;22044;48.298;10.008;2022-08-19T11:42:11;17.90;99.90
35962;DHT22;22044;48.298;10.008;2022-08-19T11:44:56;17.90;99.90
35962;DHT22;22044;48.298;10.008;2022-08-19T11:47:23;17.90;99.90
35962;DHT22;22044;48.298;10.008;2022-08-19T11:49:50;17.90;99.90
35962;DHT22;22044;48.298;10.008;2022-08-19T11:52:19;17.90;99.90
35962;DHT22;22044;48.298;10.008;2022-08-19T11:54:46;17.90;99.90
35962;DHT22;22044;48.298;10.008;2022-08-19T11:57:14;18.00;99.90
35962;DHT22;22044;48.298;10.008;2022-08-19T11:59:47;18.00;99.90
35962;DHT22;22044;48.298;10.008;2022-08-19T12:02:14;18.00;99.90
35962;DHT22;22044;48.298;10.008;2022-08-19T12:04:42;18.10;99.90
35962;DHT22;22044;48.298;10.008;2022-08-19T12:07:09;18.00;99.90
35962;DHT22;22044;48.298;10.008;2022-08-19T12:09:36;17.90;99.90
35962;DHT22;22044;48.298;10.008;2022-08-19T12:12:05;17.90;99.90
35962;DHT22;22044;48.298;10.008;2022-08-19T12:14:34;17.90;99.90
35962;DHT22;22044;48.298;10.008;2022-08-19T12:17:01;17.80;99.90
35962;DHT22;22044;48.298;10.008;2022-08-19T12:19:30;17.80;99.90
35962;DHT22;22044;48.298;10.008;2022-08-19T12:21:59;17.80;99.90
35962;DHT22;22044;48.298;10.008;2022-08-19T12:24:27;17.80;99.90
35962;DHT22;22044;48.298;10.008;2022-08-19T12:26:57;17.80;99.90
35962;DHT22;22044;48.298;10.008;2022-08-19T12:29:27;17.80;99.90
35962;DHT22;22044;48.298;10.008;2022-08-19T12:31:57;17.90;99.90
35962;DHT22;22044;48.298;10.008;2022-08-19T12:34:27;17.90;99.90
35962;DHT22;22044;48.298;10.008;2022-08-19T12:36:56;17.80;99.90
35962;DHT22;22044;48.298;10.008;2022-08-19T12:39:26;17.80;99.90
35962;DHT22;22044;48.298;10.008;2022-08-19T12:41:53;17.90;99.90
35962;DHT22;22044;48.298;10.008;2022-08-19T12:44:21;18.00;99.90
35962;DHT22;22044;48.298;10.008;2022-08-19T12:46:48;17.90;99.90
35962;DHT22;22044;48.298;10.008;2022-08-19T12:49:17;17.80;99.90
35962;DHT22;22044;48.298;10.008;2022-08-19T12:51:44;17.80;99.90
35962;DHT22;22044;48.298;10.008;2022-08-19T12:54:12;17.90;99.90
35962;DHT22;22044;48.298;10.008;2022-08-19T12:56:40;17.90;99.90
35962;DHT22;22044;48.298;10.008;2022-08-19T12:59:09;17.90;99.90
35962;DHT22;22044;48.298;10.008;2022-08-19T13:01:37;17.90;99.90
35962;DHT22;22044;48.298;10.008;2022-08-19T13:04:04;17.80;99.90
35962;DHT22;22044;48.298;10.008;2022-08-19T13:06:32;17.70;99.90
35962;DHT22;22044;48.298;10.008;2022-08-19T13:09:00;17.70;99.90
35962;DHT22;22044;48.298;10.008;2022-08-19T13:11:27;17.70;99.90
35962;DHT22;22044;48.298;10.008;2022-08-19T13:13:58;17.80;99.90
35962;DHT22;22044;48.298;10.008;2022-08-19T13:16:26;17.80;99.90
35962;DHT22;22044;48.298;10.008;2022-08-19T13:18:54;17.80;99.90
35962;DHT22;22044;48.298;10.008;2022-08-19T13:21:24;17.90;99.90
35962;DHT22;22044;48.298;10.008;2022-08-19T13:23:54;17.90;99.90
35962;DHT22;22044;48.298;10.008;2022-08-19T13:26:21;17.90;99.90
35962;DHT22;22044;48.298;10.008;2022-08-19T13:28:48;17.90;99.90
35962;DHT22;22044;48.298;10.008;2022-08-19T13:31:35;17.90;99.90
35962;DHT22;22044;48.298;10.008;2022-08-19T13:34:27;17.90;99.90
35962;DHT22;22044;48.298;10.008;2022-08-19T13:36:54;17.80;99.90
35962;DHT22;22044;48.298;10.008;2022-08-19T13:39:23;17.80;99.90
35962;DHT22;22044;48.298;10.008;2022-08-19T13:41:50;17.90;99.90
35962;DHT22;22044;48.298;10.008;2022-08-19T13:44:18;17.90;99.90
35962;DHT22;22044;48.298;10.008;2022-08-19T13:46:46;17.80;99.90
35962;DHT22;22044;48.298;10.008;2022-08-19T13:49:14;17.70;99.90
35962;DHT22;22044;48.298;10.008;2022-08-19T13:51:42;17.70;99.90
35962;DHT22;22044;48.298;10.008;2022-08-19T13:54:10;17.80;99.90
35962;DHT22;22044;48.298;10.008;2022-08-19T13:56:41;17.80;99.90
35962;DHT22;22044;48.298;10.008;2022-08-19T13:59:09;17.80;99.90
35962;DHT22;22044;48.298;10.008;2022-08-19T14:01:37;17.90;99.90
35962;DHT22;22044;48.298;10.008;2022-08-19T14:04:05;17.90;99.90
35962;DHT22;22044;48.298;10.008;2022-08-19T14:06:32;17.90;99.90
35962;DHT22;22044;48.298;10.008;2022-08-19T14:09:00;17.90;99.90
35962;DHT22;22044;48.298;10.008;2022-08-19T14:11:28;17.80;99.90
35962;DHT22;22044;48.298;10.008;2022-08-19T14:13:56;17.90;99.90
35962;DHT22;22044;48.298;10.008;2022-08-19T14:16:23;17.80;99.90
35962;DHT22;22044;48.298;10.008;2022-08-19T14:18:50;17.90;99.90
35962;DHT22;22044;48.298;10.008;2022-08-19T14:21:23;18.00;99.90
35962;DHT22;22044;48.298;10.008;2022-08-19T14:23:51;17.90;99.90
35962;DHT22;22044;48.298;10.008;2022-08-19T14:26:21;17.90;99.90
35962;DHT22;22044;48.298;10.008;2022-08-19T14:28:48;17.80;99.90
35962;DHT22;22044;48.298;10.008;2022-08-19T14:31:17;17.80;99.90
35962;DHT22;22044;48.298;10.008;2022-08-19T14:33:46;17.80;99.90
35962;DHT22;22044;48.298;10.008;2022-08-19T14:36:13;17.80;99.90
35962;DHT22;22044;48.298;10.008;2022-08-19T14:38:41;17.70;99.90
35962;DHT22;22044;48.298;10.008;2022-08-19T14:41:10;17.70;99.90
35962;DHT22;22044;48.298;10.008;2022-08-19T14:43:39;17.80;99.90
35962;DHT22;22044;48.298;10.008;2022-08-19T14:46:06;17.80;99.90
35962;DHT22;22044;48.298;10.008;2022-08-19T14:48:35;17.80;99.90
35962;DHT22;22044;48.298;10.008;2022-08-19T14:51:04;17.80;99.90
35962;DHT22;22044;48.298;10.008;2022-08-19T14:53:33;17.80;99.90
35962;DHT22;22044;48.298;10.008;2022-08-19T14:56:00;17.90;99.90
35962;DHT22;22044;48.298;10.008;2022-08-19T14:58:28;17.80;99.90
35962;DHT22;22044;48.298;10.008;2022-08-19T15:00:57;17.70;99.90
35962;DHT22;22044;48.298;10.008;2022-08-19T15:03:25;17.70;99.90
35962;DHT22;22044;48.298;10.008;2022-08-19T15:05:54;17.80;99.90
35962;DHT22;22044;48.298;10.008;2022-08-19T15:08:22;17.70;99.90
35962;DHT22;22044;48.298;10.008;2022-08-19T15:10:50;17.70;99.90
35962;DHT22;22044;48.298;10.008;2022-08-19T15:13:18;17.70;99.90
35962;DHT22;22044;48.298;10.008;2022-08-19T15:15:45;17.80;99.90
35962;DHT22;22044;48.298;10.008;2022-08-19T15:18:13;17.70;99.90
35962;DHT22;22044;48.298;10.008;2022-08-19T15:20:40;17.70;99.90
35962;DHT22;22044;48.298;10.008;2022-08-19T15:23:10;17.80;99.90
35962;DHT22;22044;48.298;10.008;2022-08-19T15:25:37;17.80;99.90
35962;DHT22;22044;48.298;10.008;2022-08-19T15:28:04;17.70;99.90